• Join FlightAware (Why Join?)
  • Login
  • US Flag 
07:10PM EDT


 

Airport Tracker/Info


-or-


 

Live Flight TrackerFlight Track Log ✈ VH-ENT ✈ 13-Feb-2014 ✈ YLGB - YBRM / BME

Flight Track Log - Related Links

Times and Time Zones

All times are in EST time to prevent confusion due to time zone crossing. See the VH-ENT flight status page for this flight to view local times or setup timezone preferences in your user account.

Time Position Orientation Groundspeed Altitude Reporting Facility
EST Latitude Longitude Course Direction KTS MPH feet Rate Location/Type
07:55PM -18.6375 121.8346 360° North 100  Level Aus ATC (Calculated)
07:55PM -18.6375 121.8346 360° North 100  Level Aus ATC (Calculated)
07:56PM -18.6375 121.8346 29° Northeast 100  Level Aus ATC (Calculated)
07:58PM -18.5898 121.8621 29° Northeast  Level Estimated
07:59PM -18.5615 121.8784 29° Northeast  Level Estimated
07:59PM -18.4648 121.9351 28° Northeast 400  Level Aus ATC (Calculated)
08:01PM -18.4171 121.9624 28° Northeast  Level Estimated
08:01PM -18.4004 121.9718 360° North 100  Level Aus ATC (Calculated)
08:01PM -18.4004 121.9718 28° Northeast 100  Level Aus ATC (Calculated)
08:03PM -18.3484 122.0015 28° Northeast  Level Estimated
08:04PM -18.3201 122.0177 28° Northeast  Level Estimated
08:05PM -18.2917 122.0339 28° Northeast  Level Estimated
08:06PM -18.2634 122.0501 28° Northeast  Level Estimated
08:07PM -18.2351 122.0663 28° Northeast  Level Estimated
08:08PM -18.2067 122.0825 28° Northeast  Level Estimated
08:09PM -18.1783 122.0986 28° Northeast  Level Estimated
08:10PM -18.1500 122.1148 28° Northeast  Level Estimated
08:11PM -18.1216 122.1310 28° Northeast  Level Estimated
08:12PM -18.0933 122.1471 28° Northeast  Level Estimated
08:13PM -18.0649 122.1633 28° Northeast  Level Estimated
08:14PM -18.0365 122.1794 28° Northeast  Level Estimated
08:15PM -18.0082 122.1956 28° Northeast  Level Estimated
08:16PM -17.9798 122.2117 28° Northeast  Level Estimated
08:17PM -17.9514 122.2279 28° Northeast  Level Estimated
08:18PM -17.9447 122.2317 28° Northeast  Level Estimated
08:19PM -17.9447 122.2317 235° Southwest  Level Estimated
08:20PM -17.9447 122.2317 235° Southwest  Level Estimated
08:21PM -17.9447 122.2317 235° Southwest  Level Estimated
08:22PM -17.9447 122.2317 235° Southwest  Level Estimated
08:23PM -17.9447 122.2317 235° Southwest  Level Estimated
08:24PM -17.9447 122.2317 235° Southwest  Level Estimated
08:25PM -17.9447 122.2317 235° Southwest  Level Estimated
08:26PM -17.9447 122.2317 235° Southwest  Level Estimated
08:27PM -17.9447 122.2317 235° Southwest  Level Estimated
08:28PM -17.9447 122.2317 235° Southwest  Level Estimated
08:29PM -17.9447 122.2317 235° Southwest  Level Estimated
08:30PM -17.9447 122.2317 235° Southwest  Level Estimated
08:31PM -17.9447 122.2317 235° Southwest  Level Estimated
08:32PM -17.9447 122.2317 235° Southwest  Level Estimated
08:33PM -17.9447 122.2317 235° Southwest  Level Estimated